createdAt,value
2018-05-26T00:01:10.906Z,98580.39
2018-05-26T00:03:38.535Z,98578.41
2018-05-26T00:06:06.130Z,98576.09
2018-05-26T00:08:33.804Z,98578.62
2018-05-26T00:11:01.452Z,98584.78
2018-05-26T00:13:29.012Z,98586.91
2018-05-26T00:15:56.851Z,98583.30
2018-05-26T00:18:24.421Z,98581.39
2018-05-26T00:20:52.045Z,98576.37
2018-05-26T00:23:19.752Z,98575.19
2018-05-26T00:25:47.375Z,98583.41
2018-05-26T00:28:14.957Z,98575.68
2018-05-26T00:30:42.683Z,98582.23
2018-05-26T00:33:10.261Z,98585.25
2018-05-26T00:35:37.828Z,98589.05
2018-05-26T00:38:05.465Z,98597.96
2018-05-26T00:40:33.038Z,98603.98
2018-05-26T00:43:00.616Z,98609.97
2018-05-26T00:45:28.257Z,98612.58
2018-05-26T00:47:55.829Z,98609.78
2018-05-26T00:50:23.396Z,98618.67
2018-05-26T00:52:51.020Z,98627.98
2018-05-26T00:55:18.694Z,98632.70
2018-05-26T00:57:46.309Z,98638.66
2018-05-26T01:00:14.026Z,98635.88
2018-05-26T01:02:41.592Z,98637.26
2018-05-26T01:05:09.227Z,98642.80
2018-05-26T01:07:37.104Z,98644.38
2018-05-26T01:10:04.725Z,98645.94
2018-05-26T01:12:32.310Z,98640.14
2018-05-26T01:15:00.028Z,98654.31
2018-05-26T01:17:27.608Z,98652.55
2018-05-26T01:19:55.211Z,98652.34
2018-05-26T01:22:22.918Z,98658.83
2018-05-26T01:24:50.500Z,98655.75
2018-05-26T01:27:18.174Z,98656.48
2018-05-26T01:29:45.799Z,98656.44
2018-05-26T01:32:13.428Z,98657.73
2018-05-26T01:34:41.023Z,98658.00
2018-05-26T01:37:08.700Z,98658.13
2018-05-26T01:39:36.348Z,98667.97
2018-05-26T01:42:03.919Z,98667.69
2018-05-26T01:44:32.467Z,98663.80
2018-05-26T01:47:00.083Z,98661.08
2018-05-26T01:49:27.660Z,98667.30
2018-05-26T01:51:55.379Z,98660.61
2018-05-26T01:54:22.953Z,98652.41
2018-05-26T01:56:50.585Z,98656.62
2018-05-26T01:59:18.261Z,98655.44
2018-05-26T02:01:45.891Z,98649.58
2018-05-26T02:04:13.471Z,98653.63
2018-05-26T02:06:41.110Z,98658.80
2018-05-26T02:09:08.677Z,98652.18
2018-05-26T02:11:36.256Z,98645.28
2018-05-26T02:14:04.675Z,98652.60
2018-05-26T02:16:32.235Z,98650.48
2018-05-26T02:18:59.856Z,98652.66
2018-05-26T02:21:27.599Z,98642.13
2018-05-26T02:23:55.183Z,98641.39
2018-05-26T02:26:22.806Z,98646.62
2018-05-26T02:28:51.361Z,98647.81
2018-05-26T02:31:18.928Z,98650.48
2018-05-26T02:33:46.569Z,98643.28
2018-05-26T02:36:14.192Z,98645.48
2018-05-26T02:38:41.761Z,98657.67
2018-05-26T02:41:09.348Z,98652.42
2018-05-26T02:43:37.065Z,98653.23
2018-05-26T02:46:04.674Z,98659.41
2018-05-26T02:48:32.252Z,98654.06
2018-05-26T02:50:59.985Z,98650.95
2018-05-26T02:53:27.565Z,98656.66
2018-05-26T02:55:55.202Z,98658.99
2018-05-26T02:58:23.404Z,98659.52
2018-05-26T03:00:51.000Z,98659.45
2018-05-26T03:03:18.640Z,98653.08
2018-05-26T03:05:52.080Z,98659.60
2018-05-26T03:08:25.557Z,98655.80
2018-05-26T03:10:59.824Z,98660.69
2018-05-26T03:13:32.952Z,98663.91
2018-05-26T03:16:18.486Z,98660.21
2018-05-26T03:18:46.744Z,98662.91
2018-05-26T03:21:14.318Z,98660.53
2018-05-26T03:23:41.956Z,98658.45
2018-05-26T03:26:09.537Z,98649.60
2018-05-26T03:28:37.126Z,98659.69
2018-05-26T03:31:05.789Z,98658.91
2018-05-26T03:33:33.373Z,98658.21
2018-05-26T03:36:00.960Z,98668.27
2018-05-26T03:38:28.667Z,98664.11
2018-05-26T03:40:56.317Z,98667.22
2018-05-26T03:43:23.961Z,98668.47
2018-05-26T03:45:51.607Z,98662.51
2018-05-26T03:48:19.233Z,98661.75
2018-05-26T03:50:46.811Z,98656.86
2018-05-26T03:53:14.761Z,98658.12
2018-05-26T03:55:54.195Z,98659.67
2018-05-26T03:58:33.633Z,98662.55
2018-05-26T04:01:01.269Z,98666.84
2018-05-26T04:03:28.855Z,98658.91
2018-05-26T04:05:56.515Z,98664.77
2018-05-26T04:08:24.092Z,98668.28
2018-05-26T04:10:52.463Z,98665.55
2018-05-26T04:13:20.177Z,98664.88
2018-05-26T04:15:47.849Z,98668.47
2018-05-26T04:18:15.425Z,98674.00
2018-05-26T04:20:43.294Z,98667.84
2018-05-26T04:23:11.408Z,98676.19
2018-05-26T04:25:39.038Z,98674.79
2018-05-26T04:28:06.717Z,98674.69
2018-05-26T04:30:34.283Z,98667.27
2018-05-26T04:33:01.908Z,98672.58
2018-05-26T04:35:29.747Z,98671.52
2018-05-26T04:37:57.367Z,98669.57
2018-05-26T04:40:25.008Z,98667.73
2018-05-26T04:42:52.809Z,98667.32
2018-05-26T04:45:20.388Z,98663.44
2018-05-26T04:47:47.965Z,98675.20
2018-05-26T04:50:15.753Z,98679.08
2018-05-26T04:52:43.323Z,98677.96
2018-05-26T04:55:10.976Z,98679.48
2018-05-26T04:57:38.678Z,98685.91
2018-05-26T05:00:06.322Z,98681.72
2018-05-26T05:02:33.963Z,98690.70
2018-05-26T05:05:01.581Z,98684.39
2018-05-26T05:07:29.168Z,98690.66
2018-05-26T05:09:57.173Z,98694.62
2018-05-26T05:12:24.794Z,98699.34
2018-05-26T05:14:52.387Z,98700.00
2018-05-26T05:17:20.952Z,98702.16
2018-05-26T05:19:48.579Z,98710.27
2018-05-26T05:22:16.222Z,98711.17
2018-05-26T05:24:43.791Z,98714.42
2018-05-26T05:27:11.630Z,98730.73
2018-05-26T05:29:39.212Z,98722.67
2018-05-26T05:32:06.803Z,98722.04
2018-05-26T05:34:34.549Z,98724.22
2018-05-26T05:37:02.196Z,98718.64
2018-05-26T05:39:29.774Z,98721.98
2018-05-26T05:41:57.507Z,98731.36
2018-05-26T05:44:25.083Z,98735.02
2018-05-26T05:46:52.677Z,98736.98
2018-05-26T05:49:20.506Z,98745.13
2018-05-26T05:51:48.116Z,98751.91
2018-05-26T05:54:15.692Z,98750.44
2018-05-26T05:56:43.400Z,98752.61
2018-05-26T05:59:10.976Z,98750.49
2018-05-26T06:01:38.550Z,98745.39
2018-05-26T06:04:06.284Z,98746.87
2018-05-26T06:06:33.870Z,98749.73
2018-05-26T06:09:01.436Z,98743.16
2018-05-26T06:11:29.166Z,98742.08
2018-05-26T06:13:56.798Z,98748.53
2018-05-26T06:16:24.445Z,98754.12
2018-05-26T06:18:52.132Z,98741.66
2018-05-26T06:21:19.701Z,98762.20
2018-05-26T06:23:47.361Z,98752.23
2018-05-26T06:26:15.004Z,98760.61
2018-05-26T06:28:42.658Z,98771.08
2018-05-26T06:31:10.233Z,98766.51
2018-05-26T06:33:37.853Z,98775.76
2018-05-26T06:36:05.446Z,98776.47
2018-05-26T06:38:33.075Z,98782.37
2018-05-26T06:41:00.794Z,98783.26
2018-05-26T06:43:28.362Z,98780.14
2018-05-26T06:45:55.952Z,98775.73
2018-05-26T06:48:23.625Z,98784.11
2018-05-26T06:50:51.222Z,98795.34
2018-05-26T06:53:18.855Z,98788.02
2018-05-26T06:55:46.648Z,98799.61
2018-05-26T06:58:14.227Z,98793.97
2018-05-26T07:00:41.867Z,98800.70
2018-05-26T07:03:09.624Z,98803.05
2018-05-26T07:05:37.265Z,98803.33
2018-05-26T07:08:04.848Z,98801.11
2018-05-26T07:10:32.551Z,98799.20
2018-05-26T07:13:00.116Z,98801.16
2018-05-26T07:15:27.684Z,98798.37
2018-05-26T07:17:55.307Z,98796.69
2018-05-26T07:20:22.888Z,98792.53
2018-05-26T07:22:50.481Z,98797.63
2018-05-26T07:25:18.163Z,98789.67
2018-05-26T07:27:45.800Z,98791.34
2018-05-26T07:30:13.395Z,98796.31
2018-05-26T07:32:41.134Z,98799.95
2018-05-26T07:35:08.725Z,98801.96
2018-05-26T07:37:37.658Z,98805.58
2018-05-26T07:40:05.307Z,98805.59
2018-05-26T07:42:33.448Z,98814.16
2018-05-26T07:45:01.020Z,98811.63
2018-05-26T07:47:28.806Z,98817.31
2018-05-26T07:49:56.402Z,98820.61
2018-05-26T07:52:23.992Z,98823.46
2018-05-26T07:54:51.655Z,98817.20
2018-05-26T07:57:19.230Z,98823.95
2018-05-26T07:59:46.844Z,98824.39
2018-05-26T08:02:14.472Z,98831.17
2018-05-26T08:04:42.044Z,98829.55
2018-05-26T08:07:09.643Z,98836.20
2018-05-26T08:09:37.260Z,98831.12
2018-05-26T08:12:05.455Z,98837.09
2018-05-26T08:14:33.033Z,98826.69
2018-05-26T08:17:00.681Z,98824.78
2018-05-26T08:19:28.252Z,98830.62
2018-05-26T08:21:55.815Z,98830.75
2018-05-26T08:24:23.965Z,98835.92
2018-05-26T08:26:51.545Z,98837.14
2018-05-26T08:29:19.118Z,98838.10
2018-05-26T08:31:46.748Z,98842.22
2018-05-26T08:34:16.498Z,98852.63
2018-05-26T08:36:44.075Z,98846.66
2018-05-26T08:39:13.401Z,98844.41
2018-05-26T08:41:43.829Z,98844.41
2018-05-26T08:44:11.397Z,98846.30
2018-05-26T08:46:39.020Z,98851.05
2018-05-26T08:49:06.628Z,98849.83
2018-05-26T08:51:34.220Z,98849.59
2018-05-26T08:54:03.475Z,98855.55
2018-05-26T08:56:31.672Z,98853.01
2018-05-26T08:58:59.244Z,98852.19
2018-05-26T09:01:28.727Z,98850.23
2018-05-26T09:03:56.353Z,98855.91
2018-05-26T09:06:23.960Z,98850.75
2018-05-26T09:08:52.052Z,98844.86
2018-05-26T09:11:19.667Z,98849.19
2018-05-26T09:13:47.281Z,98849.99
2018-05-26T09:16:14.899Z,98844.05
2018-05-26T09:18:42.515Z,98845.91
2018-05-26T09:21:10.071Z,98829.11
2018-05-26T09:23:37.712Z,98840.06
2018-05-26T09:26:05.308Z,98833.42
2018-05-26T09:28:32.877Z,98841.31
2018-05-26T09:31:00.597Z,98837.12
2018-05-26T09:33:28.170Z,98831.39
2018-05-26T09:35:55.744Z,98836.61
2018-05-26T09:38:23.471Z,98834.60
2018-05-26T09:40:51.068Z,98828.20
2018-05-26T09:43:19.449Z,98827.53
2018-05-26T09:45:47.159Z,98826.14
2018-05-26T09:48:14.725Z,98827.95
2018-05-26T09:50:42.309Z,98836.49
2018-05-26T09:53:09.918Z,98833.67
2018-05-26T09:55:37.492Z,98824.29
2018-05-26T09:58:05.069Z,98833.41
2018-05-26T10:00:32.704Z,98831.66
2018-05-26T10:03:00.272Z,98841.03
2018-05-26T10:05:27.854Z,98836.38
2018-05-26T10:07:55.511Z,98831.48
2018-05-26T10:10:23.098Z,98836.63
2018-05-26T10:12:51.816Z,98832.10
2018-05-26T10:15:20.303Z,98832.84
2018-05-26T10:17:49.098Z,98832.77
2018-05-26T10:20:16.688Z,98828.91
2018-05-26T10:22:46.713Z,98831.39
2018-05-26T10:25:14.279Z,98822.30
2018-05-26T10:27:41.860Z,98807.41
2018-05-26T10:30:10.272Z,98817.06
2018-05-26T10:32:37.907Z,98833.00
2018-05-26T10:35:05.485Z,98816.40
2018-05-26T10:37:33.121Z,98819.56
2018-05-26T10:40:00.706Z,98811.16
2018-05-26T10:42:28.323Z,98805.05
2018-05-26T10:44:55.952Z,98807.08
2018-05-26T10:47:23.539Z,98798.52
2018-05-26T10:49:51.155Z,98799.98
2018-05-26T10:52:18.903Z,98792.06
2018-05-26T10:54:46.485Z,98793.92
2018-05-26T10:57:14.068Z,98808.56
2018-05-26T10:59:41.696Z,98806.16
2018-05-26T11:02:09.311Z,98810.76
2018-05-26T11:04:36.891Z,98805.65
2018-05-26T11:07:04.501Z,98802.09
2018-05-26T11:09:32.091Z,98805.51
2018-05-26T11:11:59.663Z,98789.72
2018-05-26T11:14:27.299Z,98791.67
2018-05-26T11:16:54.919Z,98804.17
2018-05-26T11:19:22.495Z,98797.95
2018-05-26T11:21:50.215Z,98798.31
2018-05-26T11:24:17.823Z,98787.01
2018-05-26T11:26:45.434Z,98804.30
2018-05-26T11:29:13.924Z,98794.47
2018-05-26T11:31:41.490Z,98791.50
2018-05-26T11:34:09.064Z,98786.55
2018-05-26T11:36:36.699Z,98784.36
2018-05-26T11:39:04.353Z,98780.11
2018-05-26T11:41:31.931Z,98784.11
2018-05-26T11:43:59.601Z,98780.03
2018-05-26T11:46:27.184Z,98781.64
2018-05-26T11:48:55.709Z,98777.91
2018-05-26T11:51:23.336Z,98769.68
2018-05-26T11:53:50.903Z,98767.97
2018-05-26T11:56:18.609Z,98768.66
2018-05-26T11:58:46.252Z,98764.53
2018-05-26T12:01:13.828Z,98761.19
2018-05-26T12:03:41.417Z,98755.94
2018-05-26T12:06:09.151Z,98754.48
2018-05-26T12:08:37.309Z,98756.72
2018-05-26T12:11:04.944Z,98754.92
2018-05-26T12:13:33.564Z,98750.86
2018-05-26T12:16:01.152Z,98738.83
2018-05-26T12:18:28.749Z,98735.97
2018-05-26T12:20:56.465Z,98743.84
2018-05-26T12:23:24.048Z,98749.15
2018-05-26T12:25:51.675Z,98738.88
2018-05-26T12:28:19.298Z,98741.69
2018-05-26T12:30:46.872Z,98741.82
2018-05-26T12:33:15.180Z,98739.46
2018-05-26T12:35:42.796Z,98746.67
2018-05-26T12:38:10.455Z,98740.09
2018-05-26T12:40:38.048Z,98736.27
2018-05-26T12:43:05.781Z,98740.55
2018-05-26T12:45:34.031Z,98742.50
2018-05-26T12:48:01.621Z,98747.48
2018-05-26T12:50:29.352Z,98752.50
2018-05-26T12:52:56.927Z,98740.52
2018-05-26T12:55:24.497Z,98741.63
2018-05-26T12:57:52.141Z,98729.22
2018-05-26T13:00:19.711Z,98740.02
2018-05-26T13:02:47.291Z,98724.45
2018-05-26T13:05:14.916Z,98727.49
2018-05-26T13:07:42.491Z,98721.94
2018-05-26T13:10:10.066Z,98721.34
2018-05-26T13:12:37.685Z,98706.53
2018-05-26T13:15:05.269Z,98700.69
2018-05-26T13:17:32.834Z,98708.06
2018-05-26T13:20:00.452Z,98705.77
2018-05-26T13:22:28.020Z,98705.36
2018-05-26T13:24:55.593Z,98716.66
2018-05-26T13:27:23.315Z,98712.56
2018-05-26T13:29:50.898Z,98713.06
2018-05-26T13:32:18.475Z,98716.41
2018-05-26T13:34:46.132Z,98713.56
2018-05-26T13:37:13.705Z,98721.33
2018-05-26T13:39:41.283Z,98723.05
2018-05-26T13:42:08.996Z,98722.63
2018-05-26T13:44:36.572Z,98718.33
2018-05-26T13:47:04.696Z,98721.15
2018-05-26T13:49:32.332Z,98716.76
2018-05-26T13:51:59.920Z,98719.31
2018-05-26T13:54:28.998Z,98713.94
2018-05-26T13:56:56.735Z,98713.11
2018-05-26T13:59:24.328Z,98712.87
2018-05-26T14:01:51.946Z,98703.25
2018-05-26T14:04:19.662Z,98706.25
2018-05-26T14:06:47.231Z,98701.06
2018-05-26T14:09:15.367Z,98710.05
2018-05-26T14:11:42.995Z,98716.88
2018-05-26T14:14:10.583Z,98721.79
2018-05-26T14:16:38.156Z,98707.01
2018-05-26T14:19:05.788Z,98711.80
2018-05-26T14:21:33.369Z,98713.70
2018-05-26T14:24:00.952Z,98698.80
2018-05-26T14:26:28.581Z,98699.14
2018-05-26T14:28:56.173Z,98699.69
2018-05-26T14:31:23.764Z,98696.83
2018-05-26T14:33:51.415Z,98703.05
2018-05-26T14:36:19.022Z,98702.77
2018-05-26T14:38:46.617Z,98696.50
2018-05-26T14:41:14.236Z,98700.82
2018-05-26T14:43:41.813Z,98695.66
2018-05-26T14:46:09.381Z,98698.55
2018-05-26T14:48:37.017Z,98704.94
2018-05-26T14:51:04.591Z,98706.05
2018-05-26T14:53:32.166Z,98707.62
2018-05-26T14:56:00.680Z,98715.11
2018-05-26T14:58:28.261Z,98716.62
2018-05-26T15:00:55.905Z,98715.48
2018-05-26T15:03:23.532Z,98720.78
2018-05-26T15:05:51.116Z,98720.97
2018-05-26T15:08:19.328Z,98731.66
2018-05-26T15:10:47.057Z,98730.68
2018-05-26T15:13:14.749Z,98733.68
2018-05-26T15:15:42.377Z,98735.07
2018-05-26T15:18:11.696Z,98732.56
2018-05-26T15:20:39.311Z,98737.39
2018-05-26T15:23:06.954Z,98735.72
2018-05-26T15:25:34.685Z,98744.42
2018-05-26T15:28:02.287Z,98739.84
2018-05-26T15:30:29.881Z,98752.41
2018-05-26T15:32:57.501Z,98753.42
2018-05-26T15:35:25.081Z,98757.83
2018-05-26T15:37:52.661Z,98754.94
2018-05-26T15:40:20.393Z,98751.31
2018-05-26T15:42:47.974Z,98754.72
2018-05-26T15:45:15.544Z,98755.33
2018-05-26T15:47:43.275Z,98765.55
2018-05-26T15:50:11.393Z,98768.98
2018-05-26T15:52:38.956Z,98767.55
2018-05-26T15:55:06.767Z,98776.68
2018-05-26T15:57:34.351Z,98774.08
2018-05-26T16:00:02.813Z,98773.80
2018-05-26T16:02:30.435Z,98773.21
2018-05-26T16:04:58.019Z,98776.81
2018-05-26T16:07:25.595Z,98773.80
2018-05-26T16:09:53.228Z,98775.64
2018-05-26T16:12:20.818Z,98778.81
2018-05-26T16:14:48.432Z,98781.83
2018-05-26T16:17:16.052Z,98787.10
2018-05-26T16:19:43.628Z,98789.19
2018-05-26T16:22:12.021Z,98776.59
2018-05-26T16:24:39.646Z,98783.80
2018-05-26T16:27:07.228Z,98783.25
2018-05-26T16:29:34.808Z,98784.34
2018-05-26T16:32:02.524Z,98789.09
2018-05-26T16:34:30.104Z,98780.47
2018-05-26T16:36:57.681Z,98789.28
2018-05-26T16:39:25.321Z,98798.76
2018-05-26T16:41:52.892Z,98805.83
2018-05-26T16:44:20.463Z,98802.72
2018-05-26T16:46:48.781Z,98811.13
2018-05-26T16:49:16.356Z,98815.32
2018-05-26T16:51:44.393Z,98822.66
2018-05-26T16:54:12.022Z,98828.77
2018-05-26T16:56:39.611Z,98826.42
2018-05-26T16:59:07.222Z,98825.03
2018-05-26T17:01:35.053Z,98828.45
2018-05-26T17:04:02.646Z,98829.05
2018-05-26T17:06:30.224Z,98826.92
2018-05-26T17:08:58.180Z,98828.98
2018-05-26T17:11:25.761Z,98820.17
2018-05-26T17:13:53.348Z,98824.84
2018-05-26T17:16:21.001Z,98823.16
2018-05-26T17:18:48.599Z,98820.91
2018-05-26T17:21:16.184Z,98822.41
2018-05-26T17:23:44.588Z,98829.42
2018-05-26T17:26:12.165Z,98826.48
2018-05-26T17:28:39.772Z,98833.88
2018-05-26T17:31:07.404Z,98834.23
2018-05-26T17:33:35.044Z,98832.38
2018-05-26T17:36:02.662Z,98834.27
2018-05-26T17:38:30.388Z,98841.02
2018-05-26T17:40:57.975Z,98844.94
2018-05-26T17:43:25.567Z,98853.66
2018-05-26T17:45:53.225Z,98855.73
2018-05-26T17:48:20.843Z,98864.72
2018-05-26T17:50:48.445Z,98853.09
2018-05-26T17:53:16.187Z,98859.67
2018-05-26T17:55:43.886Z,98855.44
2018-05-26T17:58:11.476Z,98854.96
2018-05-26T18:00:39.093Z,98860.49
2018-05-26T18:03:06.674Z,98875.30
2018-05-26T18:05:34.279Z,98879.80
2018-05-26T18:08:01.932Z,98887.50
2018-05-26T18:10:29.524Z,98892.45
2018-05-26T18:12:57.115Z,98894.19
2018-05-26T18:15:24.866Z,98898.64
2018-05-26T18:17:52.456Z,98901.56
2018-05-26T18:20:20.102Z,98908.09
2018-05-26T18:22:47.862Z,98910.20
2018-05-26T18:25:15.473Z,98911.50
2018-05-26T18:27:43.062Z,98919.89
2018-05-26T18:30:10.731Z,98921.41
2018-05-26T18:32:38.340Z,98927.81
2018-05-26T18:35:05.945Z,98926.70
2018-05-26T18:37:33.624Z,98928.06
2018-05-26T18:40:01.217Z,98924.39
2018-05-26T18:42:28.816Z,98922.87
2018-05-26T18:44:57.011Z,98926.57
2018-05-26T18:47:24.641Z,98932.63
2018-05-26T18:49:52.234Z,98928.25
2018-05-26T18:52:19.868Z,98938.70
2018-05-26T18:54:48.503Z,98943.47
2018-05-26T18:57:16.191Z,98942.63
2018-05-26T18:59:44.017Z,98951.48
2018-05-26T19:02:11.641Z,98950.77
2018-05-26T19:04:40.514Z,98959.25
2018-05-26T19:07:08.275Z,98961.27
2018-05-26T19:09:35.953Z,98958.40
2018-05-26T19:12:03.671Z,98960.02
2018-05-26T19:14:32.687Z,98963.56
2018-05-26T19:17:00.433Z,98961.51
2018-05-26T19:19:28.175Z,98960.81
2018-05-26T19:21:55.893Z,98964.97
2018-05-26T19:24:23.564Z,98957.63
2018-05-26T19:26:51.238Z,98958.34
2018-05-26T19:29:19.087Z,98965.58
2018-05-26T19:31:47.704Z,98968.80
2018-05-26T19:34:15.359Z,98968.22
2018-05-26T19:36:43.216Z,98969.40
2018-05-26T19:39:10.819Z,98976.57
2018-05-26T19:41:38.498Z,98989.33
2018-05-26T19:44:06.371Z,98995.00
2018-05-26T19:46:34.068Z,99000.11
2018-05-26T19:49:01.789Z,99002.91
2018-05-26T19:51:29.563Z,99000.63
2018-05-26T19:53:57.255Z,98999.62
2018-05-26T19:56:24.997Z,99008.17
2018-05-26T19:58:52.714Z,99000.69
2018-05-26T20:01:20.414Z,99000.26
2018-05-26T20:03:48.140Z,98987.86
2018-05-26T20:06:15.930Z,98982.34
2018-05-26T20:08:43.647Z,98976.73
2018-05-26T20:11:11.369Z,98964.94
2018-05-26T20:13:39.057Z,98969.70
2018-05-26T20:16:06.693Z,98964.66
2018-05-26T20:18:34.370Z,98969.78
2018-05-26T20:21:02.168Z,98973.39
2018-05-26T20:23:29.873Z,98969.70
2018-05-26T20:25:57.519Z,98975.19
2018-05-26T20:28:25.215Z,98982.72
2018-05-26T20:30:52.908Z,98993.06
2018-05-26T20:33:20.516Z,98996.03
2018-05-26T20:35:48.245Z,98995.22
2018-05-26T20:38:15.894Z,99002.30
2018-05-26T20:40:43.564Z,99001.82
2018-05-26T20:43:11.326Z,99004.36
2018-05-26T20:45:38.950Z,99009.24
2018-05-26T20:48:06.576Z,99008.96
2018-05-26T20:50:34.355Z,99008.82
2018-05-26T20:53:01.936Z,99009.48
2018-05-26T20:55:29.525Z,99000.61
2018-05-26T20:57:57.168Z,98993.81
2018-05-26T21:00:24.766Z,99000.56
2018-05-26T21:02:52.375Z,99001.14
2018-05-26T21:05:20.001Z,99002.41
2018-05-26T21:07:47.579Z,99000.20
2018-05-26T21:10:15.204Z,99002.83
2018-05-26T21:12:42.829Z,98997.34
2018-05-26T21:15:10.480Z,98995.97
2018-05-26T21:17:38.068Z,99000.61
2018-05-26T21:20:05.903Z,98998.72
2018-05-26T21:22:33.476Z,98995.81
2018-05-26T21:25:01.044Z,98996.17
2018-05-26T21:27:28.783Z,99000.18
2018-05-26T21:29:56.361Z,98999.39
2018-05-26T21:32:23.951Z,98999.24
2018-05-26T21:34:51.602Z,98996.75
2018-05-26T21:37:19.171Z,98988.44
2018-05-26T21:39:46.749Z,98989.05
2018-05-26T21:42:14.372Z,98988.11
2018-05-26T21:44:41.948Z,98980.83
2018-05-26T21:47:09.545Z,98982.90
2018-05-26T21:49:37.541Z,98982.73
2018-05-26T21:52:05.151Z,98985.45
2018-05-26T21:54:32.728Z,98983.86
2018-05-26T21:57:00.344Z,98977.01
2018-05-26T21:59:28.083Z,98974.55
2018-05-26T22:01:55.649Z,98970.59
2018-05-26T22:04:23.368Z,98966.05
2018-05-26T22:06:50.952Z,98970.17
2018-05-26T22:09:18.533Z,98974.22
2018-05-26T22:11:46.231Z,98971.00
2018-05-26T22:14:13.808Z,98967.84
2018-05-26T22:16:41.379Z,98973.96
2018-05-26T22:19:09.019Z,98971.59
2018-05-26T22:21:37.302Z,98970.95
2018-05-26T22:24:04.875Z,98970.75
2018-05-26T22:26:32.495Z,98967.17
2018-05-26T22:29:00.059Z,98974.86
2018-05-26T22:31:27.645Z,98976.33
2018-05-26T22:33:55.275Z,98972.59
2018-05-26T22:36:22.843Z,98969.80
2018-05-26T22:38:50.767Z,98969.54
2018-05-26T22:41:18.535Z,98964.27
2018-05-26T22:43:46.123Z,98961.51
2018-05-26T22:46:13.710Z,98964.67
2018-05-26T22:48:41.344Z,98961.51
2018-05-26T22:51:08.926Z,98957.13
2018-05-26T22:53:36.553Z,98954.30
2018-05-26T22:56:04.160Z,98955.14
2018-05-26T22:58:31.749Z,98946.03
2018-05-26T23:00:59.379Z,98950.14
2018-05-26T23:03:27.139Z,98944.55
2018-05-26T23:05:54.729Z,98947.07
2018-05-26T23:08:22.300Z,98949.45
2018-05-26T23:10:49.934Z,98944.87
2018-05-26T23:13:17.515Z,98946.55
2018-05-26T23:15:45.101Z,98940.01
2018-05-26T23:18:12.819Z,98934.42
2018-05-26T23:20:40.389Z,98928.69
2018-05-26T23:23:07.963Z,98926.89
2018-05-26T23:25:35.676Z,98922.36
2018-05-26T23:28:03.272Z,98916.97
2018-05-26T23:30:30.838Z,98912.02
2018-05-26T23:32:58.467Z,98905.64
2018-05-26T23:35:26.044Z,98901.75
2018-05-26T23:37:53.625Z,98896.69
2018-05-26T23:40:21.348Z,98883.13
2018-05-26T23:42:48.929Z,98878.92
2018-05-26T23:45:16.503Z,98879.92
2018-05-26T23:47:44.221Z,98878.39
2018-05-26T23:50:11.834Z,98883.89
2018-05-26T23:52:39.413Z,98869.23
2018-05-26T23:55:07.126Z,98871.61
2018-05-26T23:57:34.736Z,98872.35
